Time;durP1;ratioP1;P1;durP2;ratioP2;P2;SDS_P1;SDS_P2;PMS_P1;PMS_P2;Temp;Humidity;BMP_temperature;BMP_pressure;BME280_temperature;BME280_humidity;BME280_pressure;Samples;Min_cycle;Max_cycle;Signal;HPM_P1;HPM_P2
2021/01/13 00:00:08;;;;;;;7.53;5.37;;;;;;;5.54;65.36;98608.25;5017924;28;20042;-76
2021/01/13 00:02:34;;;;;;;7.18;5.90;;;;;;;5.29;65.52;98563.81;5016707;28;20443;-77
2021/01/13 00:05:00;;;;;;;8.37;5.77;;;;;;;5.21;65.48;98547.34;5018677;28;20112;-76
2021/01/13 00:07:25;;;;;;;7.97;6.07;;;;;;;5.70;65.58;98619.47;5017097;28;20065;-76
2021/01/13 00:09:51;;;;;;;6.90;5.70;;;;;;;5.62;65.33;98608.22;5017545;28;20034;-76
2021/01/13 00:12:16;;;;;;;9.03;5.80;;;;;;;5.51;65.43;98608.59;5017315;28;20038;-78
2021/01/13 00:14:43;;;;;;;9.00;5.73;;;;;;;5.31;65.17;98603.72;5016527;28;20036;-77
2021/01/13 00:17:09;;;;;;;9.37;6.37;;;;;;;5.58;65.90;98638.34;5018006;28;20032;-76
2021/01/13 00:19:34;;;;;;;7.23;6.33;;;;;;;5.16;65.94;98584.44;5018301;28;20032;-76
2021/01/13 00:22:01;;;;;;;7.57;6.23;;;;;;;5.09;66.22;98584.28;5019455;28;20026;-77
2021/01/13 00:24:26;;;;;;;8.53;6.53;;;;;;;5.47;66.53;98639.53;5018580;28;20403;-76
2021/01/13 00:27:02;;;;;;;10.33;6.90;;;;;;;5.28;66.62;98640.72;5018466;28;20072;-77
2021/01/13 00:29:29;;;;;;;9.63;7.43;;;;;;;5.42;66.89;98632.16;5034915;23;20077;-76
2021/01/13 00:31:55;;;;;;;10.97;7.40;;;;;;;5.53;67.05;98640.66;5037366;28;20036;-76
2021/01/13 00:34:21;;;;;;;11.27;7.57;;;;;;;5.33;67.27;98606.19;5036641;28;20036;-76
2021/01/13 00:36:47;;;;;;;9.20;7.40;;;;;;;5.34;67.07;98600.78;5037360;28;20029;-77
2021/01/13 00:39:13;;;;;;;9.73;6.87;;;;;;;5.06;67.03;98553.22;5038239;28;20041;-76
2021/01/13 00:41:39;;;;;;;10.13;7.97;;;;;;;5.67;67.74;98656.47;5039337;28;20021;-77
2021/01/13 00:44:05;;;;;;;9.73;7.40;;;;;;;5.69;67.53;98644.03;5044297;23;20052;-77
2021/01/13 00:46:38;;;;;;;13.53;8.53;;;;;;;5.41;66.83;98595.69;5038738;28;20031;-77
2021/01/13 00:49:05;;;;;;;11.03;8.07;;;;;;;5.46;68.00;98637.88;5039071;28;20021;-77
2021/01/13 00:51:42;;;;;;;10.00;8.07;;;;;;;5.56;67.33;98648.16;5038532;28;20033;-79
2021/01/13 00:54:09;;;;;;;12.47;8.97;;;;;;;5.62;67.77;98661.41;5038505;28;20124;-76
2021/01/13 00:56:39;;;;;;;11.30;8.67;;;;;;;5.51;67.80;98635.59;5037475;28;20057;-77
2021/01/13 00:59:04;;;;;;;12.40;8.53;;;;;;;5.34;67.82;98595.53;5036585;28;20034;-76
2021/01/13 01:01:29;;;;;;;12.47;9.57;;;;;;;5.68;67.53;98652.06;5036168;28;20033;-76
2021/01/13 01:03:56;;;;;;;12.17;8.93;;;;;;;5.75;67.73;98663.50;5035916;28;20021;-77
2021/01/13 01:06:23;;;;;;;12.07;9.67;;;;;;;5.53;67.90;98633.63;5035885;28;20017;-76
2021/01/13 01:08:49;;;;;;;14.70;9.27;;;;;;;5.55;68.36;98643.91;5036007;28;20099;-77
2021/01/13 01:11:22;;;;;;;10.57;8.43;;;;;;;5.73;68.21;98660.22;5036211;28;20021;-78
2021/01/13 01:13:47;;;;;;;11.77;8.83;;;;;;;5.54;67.75;98629.19;5035859;28;20033;-78
2021/01/13 01:16:13;;;;;;;11.97;9.47;;;;;;;5.70;67.75;98674.47;5036385;28;20025;-77
2021/01/13 01:18:38;;;;;;;11.07;8.20;;;;;;;5.62;68.11;98632.59;5035907;28;20021;-76
2021/01/13 01:21:07;;;;;;;12.70;9.13;;;;;;;4.89;67.91;98541.16;5036276;28;20381;-77
2021/01/13 01:23:32;;;;;;;11.90;8.93;;;;;;;5.31;68.09;98592.44;5035533;28;20025;-76
2021/01/13 01:25:58;;;;;;;11.93;9.00;;;;;;;5.29;67.76;98591.81;5036832;28;20021;-76
2021/01/13 01:28:23;;;;;;;10.40;7.93;;;;;;;5.50;67.96;98628.72;5043074;23;20032;-75
2021/01/13 01:30:51;;;;;;;12.33;8.97;;;;;;;5.49;68.01;98634.94;5036410;28;20037;-77
2021/01/13 01:33:17;;;;;;;12.33;9.03;;;;;;;5.48;67.60;98635.91;5036741;28;20071;-76
2021/01/13 01:35:42;;;;;;;14.17;9.20;;;;;;;5.58;67.78;98646.19;5035503;28;20033;-76
2021/01/13 01:38:07;;;;;;;11.17;8.60;;;;;;;5.58;67.91;98636.53;5035832;28;20420;-76
2021/01/13 01:40:33;;;;;;;12.43;9.30;;;;;;;5.15;67.57;98579.38;5035678;28;20097;-77
2021/01/13 01:42:58;;;;;;;12.57;8.77;;;;;;;5.51;67.50;98635.59;5036373;28;20378;-77
2021/01/13 01:45:29;;;;;;;11.23;8.40;;;;;;;5.48;67.20;98627.25;5036815;28;20022;-76
2021/01/13 01:48:15;;;;;;;12.50;8.73;;;;;;;5.56;66.80;98651.59;5043425;23;20076;-76
2021/01/13 01:50:45;;;;;;;14.90;9.63;;;;;;;5.62;67.48;98660.59;5037001;28;20030;-77
2021/01/13 01:55:50;;;;;;;11.17;9.10;;;;;;;5.67;67.61;98643.38;5035272;28;20045;-75
2021/01/13 01:58:26;;;;;;;14.20;9.67;;;;;;;5.45;66.36;98615.31;5037174;28;20021;-77
2021/01/13 02:00:55;;;;;;;14.93;8.73;;;;;;;5.61;67.18;98632.78;5035591;28;20082;-77
2021/01/13 02:03:23;;;;;;;12.33;8.53;;;;;;;5.02;66.92;98549.31;5035860;28;20444;-77
2021/01/13 02:05:54;;;;;;;11.87;8.43;;;;;;;5.53;67.17;98638.84;5037130;28;20021;-76
2021/01/13 02:08:21;;;;;;;11.27;8.77;;;;;;;5.51;67.20;98619.88;5035613;28;20029;-76
2021/01/13 02:10:48;;;;;;;10.03;7.93;;;;;;;5.61;67.09;98627.53;5034826;28;20036;-77
2021/01/13 02:13:14;;;;;;;10.80;8.37;;;;;;;4.81;66.93;98512.41;5041616;23;20043;-77
2021/01/13 02:15:39;;;;;;;11.30;8.70;;;;;;;5.24;66.95;98587.06;5015254;28;20046;-76
2021/01/13 02:18:10;;;;;;;11.20;7.57;;;;;;;5.08;66.34;98560.91;5015636;28;20026;-77
2021/01/13 02:20:39;;;;;;;9.95;6.68;;;;;;;5.07;66.15;98559.28;5017211;28;20038;-77
2021/01/13 02:23:08;;;;;;;7.97;6.60;;;;;;;5.48;65.58;98622.00;5016891;28;20029;-77
2021/01/13 02:25:45;;;;;;;9.03;6.10;;;;;;;5.46;64.97;98631.84;5018930;28;20030;-77
2021/01/13 02:28:22;;;;;;;8.83;6.60;;;;;;;5.18;64.22;98586.88;5042098;23;20061;-77
2021/01/13 02:31:22;;;;;;;8.87;6.83;;;;;;;5.56;65.07;98628.03;5037237;28;20076;-76
2021/01/13 02:33:53;;;;;;;9.10;7.13;;;;;;;5.52;64.96;98618.06;5039179;28;20032;-76
2021/01/13 02:36:23;;;;;;;9.33;7.17;;;;;;;5.62;65.25;98635.22;5040646;28;20092;-77
2021/01/13 02:38:54;;;;;;;10.03;7.63;;;;;;;5.62;64.76;98637.03;5039904;28;20029;-77
2021/01/13 02:41:28;;;;;;;11.10;7.70;;;;;;;5.54;64.04;98637.06;5039301;28;20548;-78
2021/01/13 02:43:57;;;;;;;9.83;8.27;;;;;;;5.05;65.31;98583.00;5039968;28;20025;-77
2021/01/13 02:46:57;;;;;;;10.23;7.37;;;;;;;5.50;64.81;98641.81;5042605;28;20030;-78
2021/01/13 02:49:31;;;;;;;12.73;8.17;;;;;;;5.46;64.78;98642.31;5048728;23;20029;-77
2021/01/13 02:52:02;;;;;;;9.93;7.83;;;;;;;5.44;65.15;98655.56;5047478;23;20049;-77
2021/01/13 02:54:40;;;;;;;10.80;8.07;;;;;;;4.94;64.48;98591.19;5043316;28;20054;-77
2021/01/13 02:57:21;;;;;;;9.63;7.50;;;;;;;5.36;64.52;98659.00;5042116;28;20030;-76
2021/01/13 02:59:50;;;;;;;9.65;7.45;;;;;;;5.19;64.70;98638.25;5042291;28;20064;-77
2021/01/13 03:02:18;;;;;;;11.13;7.53;;;;;;;4.87;64.54;98573.69;5042099;28;20045;-77
2021/01/13 03:04:44;;;;;;;10.73;7.73;;;;;;;5.28;64.80;98638.09;5048629;23;20103;-76
2021/01/13 03:07:14;;;;;;;12.53;9.17;;;;;;;5.35;64.60;98648.72;5047042;23;20464;-76
2021/01/13 03:09:46;;;;;;;19.80;10.60;;;;;;;5.29;64.60;98654.59;5042047;28;20036;-76
2021/01/13 03:12:25;;;;;;;16.53;9.70;;;;;;;5.32;64.45;98660.34;5041399;28;20033;-77
2021/01/13 03:14:56;;;;;;;13.90;8.60;;;;;;;5.30;64.91;98659.69;5048914;23;20045;-76
2021/01/13 03:17:33;;;;;;;12.23;8.17;;;;;;;5.31;64.83;98660.50;5042158;28;20355;-76
2021/01/13 03:20:30;;;;;;;11.57;7.93;;;;;;;5.27;64.63;98661.81;5041808;28;20021;-77
2021/01/13 03:23:21;;;;;;;12.77;8.53;;;;;;;5.27;64.35;98654.78;5048996;23;20128;-77
2021/01/13 03:25:52;;;;;;;11.23;8.50;;;;;;;5.19;64.97;98651.31;5041709;28;20128;-77
2021/01/13 03:28:19;;;;;;;12.07;8.45;;;;;;;5.05;64.89;98611.78;5041825;28;20108;-76
2021/01/13 03:30:49;;;;;;;11.20;7.93;;;;;;;5.00;64.68;98632.38;5047347;23;20456;-76
2021/01/13 03:33:24;;;;;;;9.97;7.30;;;;;;;5.18;65.03;98655.75;5040724;28;20029;-77
2021/01/13 03:35:58;;;;;;;13.47;8.17;;;;;;;4.53;64.64;98566.03;5042513;28;20104;-77
2021/01/13 03:38:27;;;;;;;10.73;7.77;;;;;;;5.03;64.65;98660.81;5043275;28;20040;-77
2021/01/13 03:41:01;;;;;;;11.17;7.90;;;;;;;4.83;64.53;98627.31;5042927;28;20030;-76
2021/01/13 03:43:36;;;;;;;9.30;7.87;;;;;;;5.01;64.13;98657.56;5050842;23;20160;-77
2021/01/13 03:46:09;;;;;;;10.43;8.10;;;;;;;5.02;64.12;98661.00;5095713;23;20065;-78
2021/01/13 03:48:50;;;;;;;12.63;8.13;;;;;;;4.94;63.67;98664.41;5049465;23;20364;-77
2021/01/13 03:51:28;;;;;;;11.50;8.75;;;;;;;4.98;64.22;98660.50;5046936;28;20036;-77
2021/01/13 03:53:59;;;;;;;11.53;8.13;;;;;;;4.85;64.30;98639.25;5045748;28;20026;-77
2021/01/13 03:56:27;;;;;;;13.80;9.43;;;;;;;4.87;64.57;98647.75;5044783;28;20032;-77
2021/01/13 03:59:11;;;;;;;11.80;8.23;;;;;;;5.06;64.17;98667.53;5044551;28;20044;-77
2021/01/13 04:01:47;;;;;;;10.90;8.97;;;;;;;4.99;64.56;98656.09;5046300;28;20028;-77
2021/01/13 04:06:59;;;;;;;11.83;8.83;;;;;;;5.09;64.50;98680.28;5056485;23;20052;-77
2021/01/13 04:09:25;;;;;;;15.07;9.90;;;;;;;4.96;64.55;98674.72;5043025;23;20069;-77
2021/01/13 04:12:14;;;;;;;14.77;9.33;;;;;;;5.01;64.34;98693.38;5058953;23;20075;-78
2021/01/13 04:14:58;;;;;;;12.77;8.60;;;;;;;4.92;64.02;98687.31;5044006;28;20057;-78
2021/01/13 04:17:27;;;;;;;12.00;8.83;;;;;;;4.85;64.26;98675.88;5048873;28;20029;-77
2021/01/13 04:19:53;;;;;;;12.67;8.93;;;;;;;4.21;64.39;98578.09;5048219;28;20029;-77
2021/01/13 04:22:21;;;;;;;12.27;9.33;;;;;;;4.63;64.18;98650.34;5049724;23;20057;-78
2021/01/13 04:24:48;;;;;;;12.83;9.23;;;;;;;4.92;64.31;98699.56;5046929;28;20029;-76
2021/01/13 04:29:57;;;;;;;15.60;9.50;;;;;;;4.74;63.42;98673.56;5044623;28;20052;-77
2021/01/13 04:32:22;;;;;;;12.33;8.80;;;;;;;4.86;64.24;98689.75;5045102;28;20029;-77
2021/01/13 04:34:49;;;;;;;13.60;9.33;;;;;;;4.34;63.31;98622.84;5045643;28;20029;-77
2021/01/13 04:37:19;;;;;;;11.77;8.93;;;;;;;4.84;63.04;98692.53;5029688;28;20029;-77
2021/01/13 04:39:46;;;;;;;14.10;9.03;;;;;;;4.08;62.88;98598.63;5052651;23;20046;-78
2021/01/13 04:42:21;;;;;;;12.00;8.30;;;;;;;4.87;63.10;98701.84;5044506;28;20032;-77
2021/01/13 04:45:06;;;;;;;13.27;8.43;;;;;;;4.85;61.93;98694.16;5050206;23;20062;-77
2021/01/13 04:47:49;;;;;;;10.27;7.27;;;;;;;4.80;61.22;98693.84;5052945;23;20113;-77
2021/01/13 04:50:20;;;;;;;11.73;8.27;;;;;;;4.11;62.78;98588.69;5048501;28;20029;-77
2021/01/13 04:52:48;;;;;;;11.33;8.33;;;;;;;4.45;62.68;98621.72;5046442;28;20028;-78
2021/01/13 04:55:25;;;;;;;13.50;9.03;;;;;;;4.88;62.44;98696.47;5046498;28;20083;-77
2021/01/13 04:58:32;;;;;;;13.13;8.40;;;;;;;4.92;62.35;98699.56;5049307;28;20040;-77
2021/01/13 05:01:25;;;;;;;13.20;8.50;;;;;;;4.93;62.39;98702.03;5055149;23;20057;-78
2021/01/13 05:04:32;;;;;;;12.63;8.60;;;;;;;4.78;61.55;98687.97;5054723;23;20121;-78
2021/01/13 05:07:24;;;;;;;13.07;9.87;;;;;;;4.92;62.25;98707.41;5055071;23;20045;-78
2021/01/13 05:09:59;;;;;;;13.85;9.70;;;;;;;4.92;62.81;98705.63;5047859;28;20025;-77
2021/01/13 05:12:46;;;;;;;12.73;8.73;;;;;;;4.97;62.70;98721.66;5063363;23;20060;-77
2021/01/13 05:15:41;;;;;;;13.03;8.80;;;;;;;5.02;62.30;98721.16;5048725;28;20057;-78
2021/01/13 05:18:16;;;;;;;14.03;8.93;;;;;;;5.02;62.08;98711.50;5051906;28;20026;-78
2021/01/13 05:23:37;;;;;;;14.97;9.50;;;;;;;5.06;62.47;98717.22;5055986;23;20045;-78
2021/01/13 05:26:12;;;;;;;12.30;9.10;;;;;;;4.96;62.45;98691.22;5049587;28;20036;-78
2021/01/13 05:29:09;;;;;;;10.53;7.97;;;;;;;5.13;62.24;98718.22;5055787;23;20047;-79
2021/01/13 05:32:03;;;;;;;12.03;7.80;;;;;;;4.98;62.56;98686.66;5052485;23;20045;-79
2021/01/13 05:42:05;;;;;;;12.27;8.87;;;;;;;5.39;62.13;98741.63;4174119;23;20049;-79
2021/01/13 05:44:34;;;;;;;13.43;9.20;;;;;;;5.17;62.38;98690.75;5060245;23;20053;-79
2021/01/13 05:50:01;;;;;;;14.93;9.53;;;;;;;5.56;62.40;98732.78;5045565;26;20080;-81
2021/01/13 05:52:41;;;;;;;15.52;10.02;;;;;;;5.13;62.01;98662.44;5047665;28;20030;-82
2021/01/13 05:57:35;;;;;;;13.38;9.80;;;;;;;5.68;62.53;98741.91;5056840;23;20140;-85
2021/01/13 06:00:49;;;;;;;15.63;9.97;;;;;;;5.59;62.06;98745.53;5022105;28;20116;-82
2021/01/13 06:06:07;;;;;;;13.77;9.30;;;;;;;5.54;61.53;98745.22;5050209;23;20037;-78
2021/01/13 06:08:39;;;;;;;12.48;8.70;;;;;;;5.54;62.05;98762.72;5041293;23;20054;-78
2021/01/13 06:11:06;;;;;;;13.82;10.00;;;;;;;5.57;61.78;98765.00;5055340;23;20076;-79
2021/01/13 06:13:44;;;;;;;15.67;10.57;;;;;;;5.59;61.63;98763.03;5031044;28;20068;-78
2021/01/13 06:16:17;;;;;;;16.27;10.27;;;;;;;5.57;61.51;98768.44;5031120;28;20101;-77
2021/01/13 06:18:52;;;;;;;16.73;11.33;;;;;;;5.38;61.27;98747.84;5119018;23;20049;-78
2021/01/13 06:21:24;;;;;;;15.60;9.90;;;;;;;5.52;61.56;98775.97;5073345;23;20049;-77
2021/01/13 06:27:16;;;;;;;14.20;9.17;;;;;;;5.41;59.07;98776.31;5027803;28;19929;-81
2021/01/13 06:33:04;;;;;;;11.60;8.80;;;;;;;5.32;60.46;98758.97;5051939;28;20045;-80
2021/01/13 06:35:48;;;;;;;11.00;8.53;;;;;;;5.44;61.12;98791.69;5015398;28;20045;-79
2021/01/13 06:45:59;;;;;;;19.33;12.67;;;;;;;5.44;61.13;98789.06;5070469;28;20055;-79
2021/01/13 06:51:04;;;;;;;22.30;13.93;;;;;;;4.72;61.22;98680.75;5083694;23;20041;-79
2021/01/13 06:53:46;;;;;;;18.27;13.23;;;;;;;5.45;59.63;98798.56;5073104;28;20021;-78
2021/01/13 06:56:16;;;;;;;20.93;14.50;;;;;;;5.47;61.58;98777.47;5075846;23;20045;-82
2021/01/13 06:59:02;;;;;;;19.63;12.43;;;;;;;5.48;59.32;98793.00;5048483;28;20036;-80
2021/01/13 07:04:01;;;;;;;14.75;10.68;;;;;;;5.52;61.37;98788.25;5075335;23;20048;-80
2021/01/13 07:06:28;;;;;;;17.03;12.27;;;;;;;5.38;61.17;98769.59;5056825;23;20064;-76
2021/01/13 07:09:09;;;;;;;16.57;10.73;;;;;;;5.17;60.90;98727.38;5063741;28;20048;-80
2021/01/13 07:11:43;;;;;;;13.33;8.67;;;;;;;5.02;59.97;98724.59;5049888;28;20035;-80
2021/01/13 07:14:09;;;;;;;17.20;11.20;;;;;;;5.16;60.33;98740.63;5079368;23;20068;-77
2021/01/13 07:16:47;;;;;;;11.27;8.57;;;;;;;5.04;60.14;98724.44;5076426;23;20056;-79
2021/01/13 07:19:13;;;;;;;14.03;9.27;;;;;;;5.45;60.76;98792.50;5056930;28;20021;-79
2021/01/13 07:21:58;;;;;;;16.43;11.70;;;;;;;5.50;60.62;98811.97;5078563;23;20155;-79
2021/01/13 07:24:31;;;;;;;18.83;12.03;;;;;;;5.41;60.22;98800.69;5024676;28;20061;-82
2021/01/13 07:27:06;;;;;;;16.27;11.67;;;;;;;5.34;60.66;98797.09;5025486;28;20072;-77
2021/01/13 07:29:41;;;;;;;16.80;11.27;;;;;;;5.17;60.86;98781.50;5029399;23;20044;-79
2021/01/13 07:34:51;;;;;;;21.12;13.84;;;;;;;3.87;61.02;98562.50;5098690;22;20061;-79
2021/01/13 07:37:21;;;;;;;20.67;13.03;;;;;;;5.13;61.67;98772.34;5078872;23;20056;-78
2021/01/13 07:40:30;;;;;;;18.57;11.17;;;;;;;5.27;61.37;98793.50;5068872;28;20089;-80
2021/01/13 07:43:41;;;;;;;19.70;13.93;;;;;;;5.35;61.30;98788.25;5056025;23;20045;-79
2021/01/13 07:49:19;;;;;;;17.57;12.57;;;;;;;5.31;60.16;98796.59;5064812;23;20057;-77
2021/01/13 07:51:57;;;;;;;18.40;11.93;;;;;;;5.31;60.70;98800.03;5026640;23;20045;-78
2021/01/13 07:56:57;;;;;;;14.90;9.73;;;;;;;5.14;60.52;98808.81;5058862;23;20037;-77
2021/01/13 07:59:41;;;;;;;15.30;10.27;;;;;;;5.23;60.78;98807.06;5033934;28;20025;-78
2021/01/13 08:05:13;;;;;;;14.16;9.84;;;;;;;5.42;61.11;98815.41;5057313;23;20452;-77
2021/01/13 08:07:42;;;;;;;14.53;10.03;;;;;;;5.13;60.55;98767.94;5044672;23;20573;-77
2021/01/13 08:10:09;;;;;;;15.50;9.73;;;;;;;5.47;60.80;98822.78;5005793;28;20096;-77
2021/01/13 08:13:22;;;;;;;12.50;9.47;;;;;;;5.42;60.53;98825.06;5016237;28;20400;-79
2021/01/13 08:16:13;;;;;;;16.55;11.25;;;;;;;5.50;60.94;98827.69;5018885;28;20085;-78
2021/01/13 08:19:08;;;;;;;17.77;10.63;;;;;;;5.66;60.62;98832.09;5010100;28;20089;-78
2021/01/13 08:21:40;;;;;;;13.70;9.67;;;;;;;5.70;60.73;98831.63;5011703;28;20068;-79
2021/01/13 08:24:24;;;;;;;15.88;10.48;;;;;;;5.17;60.67;98744.88;4997420;28;20053;-80
2021/01/13 08:26:51;;;;;;;17.50;9.90;;;;;;;4.89;60.35;98674.56;4992135;28;20042;-78
2021/01/13 08:29:19;;;;;;;15.07;10.40;;;;;;;5.58;60.05;98782.34;4996808;28;20120;-79
2021/01/13 08:31:50;;;;;;;15.73;11.03;;;;;;;5.75;59.46;98820.66;4996287;28;20026;-78
2021/01/13 08:34:17;;;;;;;15.40;10.60;;;;;;;5.99;60.20;98832.97;5012315;23;20053;-79
2021/01/13 08:37:00;;;;;;;17.57;12.40;;;;;;;5.70;59.14;98800.19;5001270;28;20037;-79
2021/01/13 08:39:28;;;;;;;15.80;10.80;;;;;;;5.77;59.83;98782.00;5017968;28;20332;-83
2021/01/13 08:42:31;;;;;;;14.47;9.97;;;;;;;5.91;59.02;98851.28;5034169;28;20092;-79
2021/01/13 08:44:57;;;;;;;16.07;10.50;;;;;;;5.88;59.59;98799.19;5015806;28;20029;-80
2021/01/13 08:47:24;;;;;;;16.27;10.30;;;;;;;6.06;59.58;98820.81;5033012;28;20198;-79
2021/01/13 08:49:50;;;;;;;13.20;9.53;;;;;;;5.87;59.29;98793.13;5035155;28;20025;-79
2021/01/13 08:52:21;;;;;;;14.30;9.73;;;;;;;5.04;58.67;98666.88;5033890;28;20371;-79
2021/01/13 08:55:14;;;;;;;18.53;10.50;;;;;;;6.13;59.62;98824.41;5025801;28;20058;-79
2021/01/13 08:58:00;;;;;;;15.27;9.60;;;;;;;6.21;59.31;98837.50;5031244;28;20029;-83
2021/01/13 09:00:26;;;;;;;13.67;9.27;;;;;;;5.95;59.38;98784.50;5026485;28;20108;-85
2021/01/13 09:02:59;;;;;;;17.70;11.53;;;;;;;5.69;59.56;98717.38;5033308;28;20033;-79
2021/01/13 09:05:33;;;;;;;16.30;10.87;;;;;;;6.38;59.05;98812.88;5027710;28;20490;-85
2021/01/13 09:08:01;;;;;;;13.10;9.20;;;;;;;5.98;59.09;98745.69;5033317;28;20339;-80
2021/01/13 09:10:51;;;;;;;13.27;9.60;;;;;;;6.53;58.18;98831.34;5033627;28;20041;-89
2021/01/13 09:13:49;;;;;;;17.00;10.10;;;;;;;6.55;58.96;98829.38;5028110;28;20026;-84
2021/01/13 09:16:29;;;;;;;18.80;11.97;;;;;;;6.60;58.95;98821.81;5014491;28;20041;-87
2021/01/13 09:18:59;;;;;;;13.90;9.75;;;;;;;6.33;58.82;98783.72;5032315;28;20120;-79
2021/01/13 09:21:36;;;;;;;21.03;10.43;;;;;;;5.55;58.86;98651.78;5015567;28;20044;-83
2021/01/13 09:24:03;;;;;;;17.10;10.40;;;;;;;5.99;58.81;98722.91;5034108;28;20033;-89
2021/01/13 09:26:32;;;;;;;16.17;11.43;;;;;;;6.68;58.64;98813.91;5031583;28;20021;-85
2021/01/13 09:28:59;;;;;;;16.83;10.53;;;;;;;6.75;58.62;98814.06;5015402;28;20356;-81
2021/01/13 09:31:25;;;;;;;17.60;11.43;;;;;;;6.72;58.81;98801.28;5031051;28;20399;-88
2021/01/13 09:33:50;;;;;;;18.23;10.93;;;;;;;6.74;58.83;98822.09;5032829;28;20073;-80
2021/01/13 09:36:16;;;;;;;15.90;11.50;;;;;;;6.75;58.63;98805.38;5032218;28;20040;-82
2021/01/13 09:38:44;;;;;;;17.30;10.93;;;;;;;6.83;58.58;98790.41;5032220;28;20029;-80
2021/01/13 09:41:22;;;;;;;15.07;9.17;;;;;;;6.98;56.97;98799.19;5015124;28;20077;-82
2021/01/13 09:44:07;;;;;;;14.00;10.10;;;;;;;7.16;57.99;98809.41;5031371;28;20022;-75
2021/01/13 09:46:32;;;;;;;13.65;9.13;;;;;;;6.75;58.40;98745.03;5022628;28;20021;-79
2021/01/13 09:49:03;;;;;;;17.63;10.90;;;;;;;7.14;57.86;98806.13;5014858;28;20029;-79
2021/01/13 09:51:29;;;;;;;18.20;12.07;;;;;;;6.79;58.53;98751.56;5021785;28;20033;-81
2021/01/13 09:53:58;;;;;;;16.90;11.73;;;;;;;7.23;58.39;98794.59;5027881;28;20024;-78
2021/01/13 09:56:27;;;;;;;15.50;10.50;;;;;;;7.33;58.21;98796.97;5027402;28;20432;-76
2021/01/13 09:58:53;;;;;;;13.45;9.20;;;;;;;7.42;58.10;98792.47;5012821;28;20033;-76
2021/01/13 10:01:25;;;;;;;12.57;8.73;;;;;;;7.06;58.28;98713.50;5013352;28;20034;-76
2021/01/13 10:03:52;;;;;;;;;;;;;;;7.48;57.37;98773.41;5007250;28;20027;-81
2021/01/13 10:06:21;;;;;;;9.25;6.60;;;;;;;6.93;58.07;98667.66;5010494;28;19960;-76
2021/01/13 10:08:51;;;;;;;19.20;8.60;;;;;;;7.48;57.62;98758.47;5030253;28;20045;-83
2021/01/13 10:11:19;;;;;;;11.63;7.15;;;;;;;7.68;57.96;98771.09;5029783;28;20091;-81
2021/01/13 10:13:55;;;;;;;11.13;7.83;;;;;;;7.72;57.45;98780.25;5023418;28;20022;-79
2021/01/13 10:16:23;;;;;;;9.07;6.72;;;;;;;7.67;56.70;98751.91;5028202;28;20069;-78
2021/01/13 10:18:55;;;;;;;11.63;6.97;;;;;;;7.78;56.08;98753.28;5030250;28;20444;-80
2021/01/13 10:21:24;;;;;;;7.30;5.75;;;;;;;7.59;57.02;98707.31;5030326;28;20053;-79
2021/01/13 10:23:51;;;;;;;8.93;5.43;;;;;;;7.94;56.50;98763.63;5029628;28;20021;-81
2021/01/13 10:26:17;;;;;;;8.38;6.15;;;;;;;7.69;56.22;98686.84;5013440;28;20025;-85
2021/01/13 10:28:43;;;;;;;10.20;6.95;;;;;;;7.70;56.63;98656.13;5008542;28;20031;-78
2021/01/13 10:31:21;;;;;;;7.65;5.68;;;;;;;8.04;55.89;98722.09;5030814;28;20047;-83
2021/01/13 10:33:54;;;;;;;8.95;6.15;;;;;;;7.78;54.72;98680.50;5009977;28;20488;-79
2021/01/13 10:36:35;;;;;;;11.48;6.45;;;;;;;8.18;55.24;98728.38;5030734;28;20033;-79
2021/01/13 10:39:07;;;;;;;9.98;7.88;;;;;;;8.14;54.75;98738.41;5029236;28;20510;-75
2021/01/13 10:41:53;;;;;;;11.25;7.60;;;;;;;8.09;55.23;98706.59;5010453;28;20026;-80
2021/01/13 10:44:23;;;;;;;10.25;7.40;;;;;;;8.21;55.33;98728.84;5027369;28;20025;-83
2021/01/13 10:46:53;;;;;;;12.95;8.73;;;;;;;8.03;55.12;98696.00;5000901;28;20443;-80
2021/01/13 10:49:20;;;;;;;14.18;7.60;;;;;;;7.98;55.16;98678.16;5026017;28;20026;-78
2021/01/13 10:51:52;;;;;;;10.50;6.75;;;;;;;8.32;53.19;98713.59;5028668;28;20029;-81
2021/01/13 10:54:23;;;;;;;11.20;8.20;;;;;;;8.31;55.02;98701.44;5015991;28;20030;-82
2021/01/13 10:56:59;;;;;;;10.73;6.55;;;;;;;7.98;54.26;98665.81;5033515;28;20030;-78
2021/01/13 10:59:26;;;;;;;9.73;7.45;;;;;;;8.34;55.23;98701.91;5033627;28;20036;-79
2021/01/13 11:01:53;;;;;;;10.40;6.75;;;;;;;7.91;54.82;98643.09;5032591;28;20025;-78
2021/01/13 11:04:34;;;;;;;10.32;6.55;;;;;;;8.18;54.85;98684.50;5029453;28;20029;-78
2021/01/13 11:07:08;;;;;;;14.10;8.70;;;;;;;8.32;55.29;98716.22;5011871;28;20059;-76
2021/01/13 11:09:36;;;;;;;11.23;6.63;;;;;;;8.31;54.80;98707.50;5030773;28;20041;-78
2021/01/13 11:12:02;;;;;;;11.40;6.70;;;;;;;8.15;55.11;98676.94;5013433;28;20448;-78
2021/01/13 11:14:31;;;;;;;11.60;7.85;;;;;;;8.21;54.92;98683.31;5034167;28;20083;-79
2021/01/13 11:17:07;;;;;;;13.57;6.85;;;;;;;8.35;54.58;98702.72;5032468;28;20488;-79
2021/01/13 11:19:33;;;;;;;11.60;8.13;;;;;;;7.81;54.66;98574.22;5012797;28;20125;-78
2021/01/13 11:22:00;;;;;;;10.65;7.65;;;;;;;8.66;54.36;98700.66;5016468;28;20109;-80
2021/01/13 11:24:41;;;;;;;9.90;6.55;;;;;;;8.72;53.90;98699.09;5029631;28;20029;-80
2021/01/13 11:27:10;;;;;;;11.90;7.53;;;;;;;8.73;54.23;98679.66;5012994;28;20026;-76
2021/01/13 11:29:38;;;;;;;11.00;6.35;;;;;;;8.44;54.08;98633.22;5010254;28;20024;-82
2021/01/13 11:32:06;;;;;;;10.68;7.80;;;;;;;8.89;54.16;98701.28;5006153;28;20017;-77
2021/01/13 11:34:32;;;;;;;14.20;8.30;;;;;;;8.27;54.04;98603.69;5033633;28;20159;-81
2021/01/13 11:37:07;;;;;;;12.07;8.02;;;;;;;8.93;53.92;98700.94;5034381;28;20036;-88
2021/01/13 11:39:32;;;;;;;16.27;9.80;;;;;;;8.96;54.70;98701.38;5029549;28;20076;-77
2021/01/13 11:42:11;;;;;;;13.43;9.00;;;;;;;8.98;54.52;98709.09;5030137;28;21071;-76
2021/01/13 11:44:58;;;;;;;11.23;7.90;;;;;;;8.54;53.90;98639.81;5013728;28;20028;-83
2021/01/13 11:47:32;;;;;;;13.50;8.48;;;;;;;8.45;54.72;98651.47;5019598;28;20029;-77
2021/01/13 11:50:01;;;;;;;13.73;9.25;;;;;;;8.48;54.87;98666.88;5027986;28;20344;-77
2021/01/13 11:52:31;;;;;;;16.23;11.43;;;;;;;8.69;54.92;98700.28;5036009;23;20038;-83
2021/01/13 11:54:57;;;;;;;15.20;9.98;;;;;;;8.55;54.84;98678.28;5031111;28;20103;-78
2021/01/13 11:57:28;;;;;;;17.02;9.50;;;;;;;8.71;54.57;98716.69;5018913;28;20116;-78
2021/01/13 12:00:18;;;;;;;12.38;8.40;;;;;;;8.61;53.08;98713.56;5031457;28;20038;-75
2021/01/13 12:02:50;;;;;;;11.98;8.15;;;;;;;8.63;54.61;98716.81;5021191;28;20569;-80
2021/01/13 12:05:28;;;;;;;9.93;7.07;;;;;;;8.64;53.62;98721.06;5031384;28;20351;-77
2021/01/13 12:08:05;;;;;;;11.25;7.75;;;;;;;8.06;54.16;98645.69;5032530;28;20025;-76
2021/01/13 12:10:38;;;;;;;11.05;7.60;;;;;;;8.58;54.07;98729.72;5031181;28;20025;-78
2021/01/13 12:13:20;;;;;;;8.63;6.35;;;;;;;8.49;53.28;98729.00;5013989;28;20394;-78
2021/01/13 12:16:02;;;;;;;11.10;7.95;;;;;;;8.44;53.53;98730.56;5014872;28;20025;-79
2021/01/13 12:18:36;;;;;;;13.70;9.30;;;;;;;8.46;53.75;98725.94;5013337;28;20025;-81
2021/01/13 12:21:14;;;;;;;15.48;7.70;;;;;;;8.59;53.61;98732.16;5016526;28;20036;-79
2021/01/13 12:23:46;;;;;;;13.80;9.45;;;;;;;8.37;53.34;98679.69;5009788;28;20025;-86
2021/01/13 12:26:19;;;;;;;13.90;9.48;;;;;;;8.74;53.21;98736.56;5010977;28;20026;-82
2021/01/13 12:28:47;;;;;;;13.57;9.32;;;;;;;8.66;53.62;98721.72;5009109;28;20021;-83
2021/01/13 12:31:15;;;;;;;11.20;8.00;;;;;;;8.38;53.12;98682.13;5017973;28;20506;-87
2021/01/13 12:33:55;;;;;;;17.33;11.38;;;;;;;8.47;51.92;98698.63;5016381;28;20018;-88
2021/01/13 12:36:25;;;;;;;11.60;8.20;;;;;;;8.74;52.64;98737.38;5002593;28;20030;-87
2021/01/13 12:38:52;;;;;;;12.38;8.43;;;;;;;8.67;52.23;98743.56;5010242;28;20040;-78
2021/01/13 12:41:20;;;;;;;14.07;8.75;;;;;;;8.62;52.68;98745.94;5012287;28;20030;-77
2021/01/13 12:43:45;;;;;;;11.82;8.80;;;;;;;8.56;52.49;98743.06;5010464;28;20018;-76
2021/01/13 12:46:11;;;;;;;15.43;10.40;;;;;;;8.58;52.25;98750.75;5010530;28;20506;-79
2021/01/13 12:48:36;;;;;;;15.32;8.77;;;;;;;8.56;52.95;98750.94;4989611;28;20030;-81
2021/01/13 12:51:05;;;;;;;14.82;8.38;;;;;;;8.54;53.15;98742.41;4994040;28;20033;-78
2021/01/13 12:53:31;;;;;;;12.50;7.75;;;;;;;7.96;53.19;98645.97;5008355;28;20045;-77
2021/01/13 12:55:56;;;;;;;12.00;8.50;;;;;;;7.89;53.00;98639.81;5003401;28;20038;-81
2021/01/13 12:58:22;;;;;;;11.77;8.05;;;;;;;8.61;53.52;98747.75;4991615;28;20052;-79